Mobridge Municipal Airport
KMBG : rendu visible

Aérodrome :











RETROUVEZ-NOUS SUR...

 
LOGIN :

S'inscrire | Disclaimer

   EN    FR    IT 

 









Légende :    VFR   VFR Marginal   IFR   IFR Intensif   IFR Très Intensif
Visi : 
Plafond : 
>= 8 km
>= 3000ft
5 à 8 km
1000 à 3000 ft
1500m à 5 km
500 à 1000 ft
800 à 1500m
200 à 500 ft
< 800m
< 200 ft
Symboles :   Orages  Brouillard  Fortes neiges  Fortes précipitations  Vent > 20 kt






- Altitude de l'aérodrome : 1716 ft


KMBG - Mobridge Municipal

DERNIER METAR :
  • 212352Z AUTO 14004KT 10SM SCT110 02/M02 A2970 RMK AO2 SLP080 T00171017 10028 20000 55001

METARs EXPIRÉS :
  • 212252Z AUTO 15006KT 10SM FEW110 02/M02 A2969 RMK AO2 SLP076 T00221017
  • 212152Z AUTO 14005KT 10SM OVC110 03/M02 A2970 RMK AO2 SLP078 T00281017

TAF KMBG
Valide du 22 à 00h jusqu'au 23 à 00h UTC


212339Z 2200/2224 VRB03KT P6SM BKN100
FM220800 31005KT P6SM BKN090



MET'MAP, la Météo Aéronautique d'un coup d'oeil ! - Copyright ORBIFLY Décembre 2007 - Disclaimer

ORBIFLY MET'MAP TEAM :

Programmation & Développement : Alexandra Zaïnal
Sur une idée originale de : Baudouin d'Aumeries
Assistance à la programmation : Marc-Olivier Méhu
Soutien technique & logistique : Manuel Goepfert

Contact : metmap@orbifly.com




SOURCES & CREDITS :

   NOAA       Earth
Advisory